Time;durP1;ratioP1;P1;durP2;ratioP2;P2;SDS_P1;SDS_P2;PMS_P1;PMS_P2;Temp;Humidity;BMP_temperature;BMP_pressure;BME280_temperature;BME280_humidity;BME280_pressure;Samples;Min_cycle;Max_cycle;Signal;HPM_P1;HPM_P2
2021/12/26 00:04:18;;;;;;;13.70;8.32;;;;;;;8.97;51.20;97149.41;10400934;28;20064;-58
2021/12/26 00:09:17;;;;;;;11.55;7.88;;;;;;;9.06;50.56;97164.91;10411867;28;20177;-58
2021/12/26 00:14:16;;;;;;;12.80;7.80;;;;;;;8.89;50.03;97132.19;10415013;28;20036;-58
2021/12/26 00:19:15;;;;;;;12.30;7.72;;;;;;;9.24;49.98;97149.28;10416063;28;20032;-58
2021/12/26 00:24:14;;;;;;;9.38;5.38;;;;;;;9.24;49.66;97156.19;10416162;28;20455;-58
2021/12/26 00:29:14;;;;;;;9.43;5.72;;;;;;;9.42;49.44;97155.25;10416062;28;20076;-58
2021/12/26 00:34:13;;;;;;;;;;;;;;;9.45;48.74;97155.25;10416277;28;20067;-58
2021/12/26 00:39:12;;;;;;;5.65;4.50;;;;;;;9.51;49.02;97129.28;10414868;28;19959;-58
2021/12/26 00:44:11;;;;;;;3.85;2.65;;;;;;;9.69;48.47;97143.84;10411075;28;20059;-58
2021/12/26 00:49:11;;;;;;;4.10;2.78;;;;;;;9.80;48.31;97146.38;10415460;28;20059;-58
2021/12/26 00:54:10;;;;;;;4.95;2.67;;;;;;;9.91;47.52;97134.16;10416044;28;20056;-58
2021/12/26 00:59:09;;;;;;;3.92;2.55;;;;;;;9.86;47.41;97120.41;10413709;28;20033;-58
2021/12/26 01:04:09;;;;;;;4.90;3.28;;;;;;;10.12;47.18;97157.34;10414401;28;20059;-58
2021/12/26 01:09:11;;;;;;;11.65;7.60;;;;;;;10.16;46.95;97140.88;10414807;28;20127;-58
2021/12/26 01:14:13;;;;;;;15.30;9.30;;;;;;;9.84;47.97;97150.66;10409174;28;20056;-58
2021/12/26 01:19:15;;;;;;;11.48;6.43;;;;;;;9.62;48.12;97142.19;10414248;28;20059;-58
2021/12/26 01:24:15;;;;;;;12.52;9.65;;;;;;;9.63;48.32;97134.41;10414331;28;20484;-58
2021/12/26 01:29:14;;;;;;;5.30;2.90;;;;;;;9.60;48.59;97124.06;10413879;28;20090;-58
2021/12/26 01:34:13;;;;;;;4.43;2.65;;;;;;;9.74;47.52;97134.31;10414193;28;20098;-58
2021/12/26 01:39:12;;;;;;;6.15;2.97;;;;;;;9.83;47.38;97130.81;10414806;28;20052;-58
2021/12/26 01:44:15;;;;;;;3.78;2.53;;;;;;;9.88;47.74;97119.50;10408625;28;20056;-58
2021/12/26 01:49:18;;;;;;;3.10;2.70;;;;;;;9.89;47.34;97110.03;10412539;28;20503;-58
2021/12/26 01:54:29;;;;;;;4.60;3.00;;;;;;;9.94;47.47;97111.69;10412691;28;20059;-58
2021/12/26 01:59:29;;;;;;;3.78;2.33;;;;;;;9.91;46.85;97105.66;10419844;28;20071;-58
2021/12/26 02:04:28;;;;;;;4.85;3.10;;;;;;;10.03;47.31;97086.53;10420180;28;20056;-58
2021/12/26 02:09:27;;;;;;;;;;;;;;;10.13;47.27;97099.41;10421527;28;20060;-58
2021/12/26 02:14:26;;;;;;;4.68;3.08;;;;;;;10.09;46.61;97091.69;10414217;28;19947;-58
2021/12/26 02:19:25;;;;;;;;;;;;;;;10.16;46.49;97095.94;10421055;28;20048;-58
2021/12/26 02:24:34;;;;;;;5.40;3.28;;;;;;;10.22;46.23;97097.63;10419779;28;19920;-58
2021/12/26 02:29:33;;;;;;;7.35;2.80;;;;;;;10.22;46.62;97092.44;10420280;28;20072;-58
2021/12/26 02:34:32;;;;;;;6.10;3.20;;;;;;;10.10;45.94;97070.94;10419705;28;20433;-58
2021/12/26 02:39:32;;;;;;;5.68;3.10;;;;;;;10.13;46.43;97089.03;10420559;28;20634;-58
2021/12/26 02:44:32;;;;;;;7.15;3.42;;;;;;;10.07;46.32;97088.25;10414811;28;20048;-58
2021/12/26 02:49:31;;;;;;;35.88;21.38;;;;;;;10.08;46.29;97092.56;10419653;28;20066;-58
2021/12/26 02:54:29;;;;;;;56.13;31.90;;;;;;;10.12;45.83;97091.66;10419416;28;20040;-58
2021/12/26 02:59:32;;;;;;;36.13;19.10;;;;;;;10.02;46.82;97092.63;10418592;28;20476;-58
2021/12/26 03:04:31;;;;;;;14.88;8.40;;;;;;;10.04;46.72;97085.69;10419397;28;20067;-58
2021/12/26 03:09:34;;;;;;;28.55;20.52;;;;;;;9.93;47.25;97091.84;10417960;28;20059;-58
2021/12/26 03:14:33;;;;;;;17.08;10.73;;;;;;;9.99;47.21;97081.41;10414816;28;20052;-58
2021/12/26 03:19:33;;;;;;;19.05;11.25;;;;;;;9.92;47.26;97082.34;10419353;28;20079;-58
2021/12/26 03:24:32;;;;;;;7.85;4.75;;;;;;;9.85;46.99;97082.41;10417551;28;20060;-58
2021/12/26 03:29:32;;;;;;;16.25;11.80;;;;;;;9.88;46.96;97087.56;10417220;28;20068;-58
2021/12/26 03:34:31;;;;;;;24.58;17.55;;;;;;;9.89;47.43;97094.47;10417479;28;20076;-58
2021/12/26 03:39:30;;;;;;;11.73;7.95;;;;;;;9.79;47.16;97075.53;10417450;28;20029;-58
2021/12/26 03:44:29;;;;;;;11.25;6.65;;;;;;;9.80;47.55;97073.81;10415607;28;20105;-58
2021/12/26 03:49:28;;;;;;;8.98;5.30;;;;;;;9.72;47.81;97073.88;10414784;28;20064;-58
2021/12/26 03:54:27;;;;;;;10.30;6.97;;;;;;;9.61;48.14;97078.31;10416846;28;20066;-58
2021/12/26 03:59:27;;;;;;;11.88;8.27;;;;;;;9.34;49.07;97072.44;10415492;28;20059;-58
2021/12/26 04:04:26;;;;;;;16.65;9.55;;;;;;;9.15;49.80;97092.38;10416692;28;20064;-58
2021/12/26 04:09:25;;;;;;;15.20;9.73;;;;;;;8.98;50.32;97100.25;10415966;28;20040;-58
2021/12/26 04:14:24;;;;;;;13.40;7.50;;;;;;;8.99;50.34;97090.75;10416161;28;20124;-58
2021/12/26 04:19:23;;;;;;;12.48;7.50;;;;;;;8.94;50.19;97094.22;10411269;28;20021;-58
2021/12/26 04:24:22;;;;;;;11.70;7.45;;;;;;;8.90;50.46;97097.72;10416142;28;20040;-58
2021/12/26 04:29:21;;;;;;;14.30;8.93;;;;;;;8.85;50.48;97090.81;10415802;28;20403;-58
2021/12/26 04:34:20;;;;;;;18.92;10.65;;;;;;;8.60;51.24;97095.22;10415753;28;20064;-58
2021/12/26 04:39:19;;;;;;;19.20;10.90;;;;;;;8.66;51.37;97097.81;10415546;28;20391;-58
2021/12/26 04:44:18;;;;;;;18.15;11.55;;;;;;;8.46;52.23;97088.41;10415687;28;20035;-58
2021/12/26 04:49:17;;;;;;;24.13;17.92;;;;;;;8.22;52.29;97094.50;10409864;28;20064;-58
2021/12/26 04:54:16;;;;;;;19.17;11.43;;;;;;;8.20;53.25;97092.78;10415306;28;20028;-58
2021/12/26 04:59:15;;;;;;;24.40;12.77;;;;;;;8.18;53.15;97104.88;10415300;28;20106;-58
2021/12/26 05:04:14;;;;;;;29.52;19.45;;;;;;;8.09;53.00;97119.50;10414905;28;20519;-58
2021/12/26 05:09:16;;;;;;;27.70;18.65;;;;;;;8.14;53.98;97131.56;10384271;28;20191;-58
2021/12/26 05:14:15;;;;;;;40.67;27.65;;;;;;;8.00;54.32;97134.16;10374939;28;20076;-58
2021/12/26 05:19:14;;;;;;;50.03;34.50;;;;;;;7.94;54.68;97145.34;10378081;28;20120;-58
2021/12/26 05:24:13;;;;;;;43.83;27.75;;;;;;;7.88;54.93;97148.81;10412402;28;20123;-58
2021/12/26 05:29:12;;;;;;;45.50;27.45;;;;;;;7.80;55.61;97150.53;10414272;28;20064;-58
2021/12/26 05:34:11;;;;;;;31.60;20.88;;;;;;;7.75;55.16;97153.97;10404197;28;20103;-58
2021/12/26 05:39:11;;;;;;;36.83;18.13;;;;;;;7.55;55.04;97126.41;10381403;28;20048;-58
2021/12/26 05:44:10;;;;;;;;;;;;;;;7.74;54.98;97154.84;10380307;28;20052;-58
2021/12/26 05:49:09;;;;;;;17.65;11.13;;;;;;;7.79;54.87;97166.03;10379358;28;19924;-58
2021/12/26 05:54:08;;;;;;;;;;;;;;;7.92;54.96;97166.88;10422488;28;20087;-58
2021/12/26 05:59:07;;;;;;;19.75;12.05;;;;;;;7.91;54.79;97181.53;10421652;28;20622;-58
2021/12/26 06:04:06;;;;;;;20.40;12.90;;;;;;;8.03;55.48;97183.25;10417711;28;20056;-58
2021/12/26 06:09:06;;;;;;;60.50;38.22;;;;;;;8.06;55.22;97189.28;10399236;28;20036;-58
2021/12/26 06:14:05;;;;;;;57.40;33.63;;;;;;;8.09;55.61;97191.88;10379192;28;20515;-58
2021/12/26 06:19:04;;;;;;;37.00;23.63;;;;;;;8.14;54.26;97186.69;10415280;28;20052;-58
2021/12/26 06:24:03;;;;;;;44.05;26.85;;;;;;;8.34;53.98;97175.47;10416160;28;20054;-58
2021/12/26 06:29:03;;;;;;;65.75;46.50;;;;;;;8.37;54.02;97171.16;10417967;28;20079;-58
2021/12/26 06:34:02;;;;;;;;;;;;;;;8.57;53.65;97162.50;10404023;28;20079;-58
2021/12/26 06:39:01;;;;;;;81.70;52.72;;;;;;;8.68;53.62;97165.91;10420329;28;19998;-58
2021/12/26 06:44:00;;;;;;;54.80;34.53;;;;;;;8.60;54.02;97160.78;10408039;28;20056;-58
2021/12/26 06:48:59;;;;;;;50.60;33.83;;;;;;;8.68;54.26;97160.75;10378062;28;20158;-58
2021/12/26 06:53:58;;;;;;;47.10;33.03;;;;;;;8.69;53.58;97162.44;10404432;28;20067;-58
2021/12/26 06:58:57;;;;;;;33.97;23.08;;;;;;;8.74;53.68;97158.16;10401704;28;20122;-58
2021/12/26 07:03:56;;;;;;;7.95;4.75;;;;;;;8.80;54.30;97157.25;10406233;28;20032;-58
2021/12/26 07:08:55;;;;;;;6.78;3.72;;;;;;;9.00;54.00;97145.09;10418502;28;20056;-58
2021/12/26 07:13:56;;;;;;;8.07;4.68;;;;;;;9.20;53.55;97146.72;10415970;28;20124;-58
2021/12/26 07:18:55;;;;;;;8.57;4.70;;;;;;;9.41;53.34;97158.72;10418391;28;20068;-58
2021/12/26 07:23:54;;;;;;;11.13;4.63;;;;;;;9.49;53.54;97125.88;10413491;28;20024;-58
2021/12/26 07:28:53;;;;;;;10.60;4.30;;;;;;;9.81;53.14;97145.50;10386783;28;20106;-58
2021/12/26 07:33:52;;;;;;;9.10;3.85;;;;;;;9.94;53.34;97136.75;10400342;28;20047;-58
2021/12/26 07:38:51;;;;;;;7.15;3.65;;;;;;;10.06;52.81;97148.75;10417770;28;20472;-58
2021/12/26 07:43:50;;;;;;;6.90;4.10;;;;;;;10.15;51.69;97165.09;10377738;28;20052;-58
2021/12/26 07:48:49;;;;;;;11.10;4.25;;;;;;;10.27;52.07;97150.28;10396243;28;20110;-58
2021/12/26 07:53:50;;;;;;;9.52;4.07;;;;;;;10.41;51.81;97140.63;10414790;28;20056;-58
2021/12/26 07:58:49;;;;;;;9.05;3.22;;;;;;;10.50;50.79;97143.13;10416433;28;20068;-58
2021/12/26 08:03:48;;;;;;;6.32;3.08;;;;;;;10.64;50.06;97157.72;10416389;28;20045;-58
2021/12/26 08:08:49;;;;;;;8.27;3.97;;;;;;;10.71;50.04;97154.16;10412262;28;20062;-58
2021/12/26 08:13:48;;;;;;;22.42;16.60;;;;;;;10.94;50.18;97154.78;10413850;28;20067;-58
2021/12/26 08:18:47;;;;;;;22.58;13.85;;;;;;;11.06;49.49;97140.78;10415402;28;20048;-58
2021/12/26 08:23:46;;;;;;;5.85;3.90;;;;;;;11.13;48.62;97120.81;10418954;28;20064;-59
2021/12/26 08:28:46;;;;;;;;;;;;;;;11.27;48.85;97118.00;10414472;28;20507;-58
2021/12/26 08:33:44;;;;;;;10.85;4.30;;;;;;;11.36;47.76;97123.06;10414077;28;19923;-58
2021/12/26 08:38:45;;;;;;;10.05;4.95;;;;;;;11.28;48.40;97099.81;10409018;28;20044;-58
2021/12/26 08:43:45;;;;;;;11.02;5.07;;;;;;;11.49;47.61;97113.38;10414383;28;20063;-58
2021/12/26 08:48:44;;;;;;;8.23;3.75;;;;;;;11.43;47.67;97094.41;10414422;28;20067;-58
2021/12/26 08:53:43;;;;;;;6.30;3.70;;;;;;;11.59;47.75;97112.34;10409048;28;20067;-59
2021/12/26 08:58:42;;;;;;;8.20;4.35;;;;;;;11.64;47.02;97095.81;10408470;28;20021;-58
2021/12/26 09:03:41;;;;;;;7.82;3.72;;;;;;;11.74;47.13;97091.31;10412644;28;20028;-59
2021/12/26 09:08:40;;;;;;;8.30;4.03;;;;;;;11.75;47.62;97090.41;10418744;28;20067;-59
2021/12/26 09:13:39;;;;;;;9.20;5.13;;;;;;;11.77;46.83;97091.25;10421808;28;20514;-58
2021/12/26 09:18:39;;;;;;;9.02;3.97;;;;;;;11.81;47.16;97084.28;10421285;28;20483;-59
2021/12/26 09:23:38;;;;;;;7.65;3.90;;;;;;;11.81;46.95;97090.31;10394056;28;20060;-58
2021/12/26 09:28:38;;;;;;;5.90;3.42;;;;;;;11.80;46.99;97091.19;10391889;28;20056;-58
2021/12/26 09:33:37;;;;;;;23.58;10.55;;;;;;;11.87;46.59;97116.19;10389356;28;20131;-58
2021/12/26 09:38:36;;;;;;;12.40;7.72;;;;;;;11.80;47.24;97104.19;10419336;28;20438;-59
2021/12/26 09:43:35;;;;;;;;;;;;;;;11.72;47.54;97090.47;10410007;28;20839;-59
2021/12/26 09:48:34;;;;;;;15.35;8.68;;;;;;;11.75;47.90;97085.22;10390128;28;21067;-58
2021/12/26 09:53:38;;;;;;;13.57;6.03;;;;;;;11.92;47.18;97097.06;10385447;28;20614;-59
2021/12/26 09:59:13;;;;;;;14.32;6.30;;;;;;;12.02;47.47;97096.06;10397533;28;20056;-59
2021/12/26 10:04:22;;;;;;;12.75;6.68;;;;;;;12.03;46.16;97106.41;10408254;28;20067;-58
2021/12/26 10:09:21;;;;;;;9.52;5.95;;;;;;;11.97;46.99;97101.34;10418535;28;20119;-58
2021/12/26 10:14:27;;;;;;;13.48;9.10;;;;;;;12.15;47.18;97109.69;10407992;28;20115;-58
2021/12/26 10:19:31;;;;;;;16.35;9.13;;;;;;;12.35;47.05;97091.16;10401875;28;20048;-58
2021/12/26 10:24:33;;;;;;;19.67;10.85;;;;;;;12.69;46.55;97107.81;10414271;28;20456;-58
2021/12/26 10:29:38;;;;;;;20.40;10.52;;;;;;;12.78;46.07;97090.31;10414393;28;20120;-58
2021/12/26 10:34:39;;;;;;;29.20;15.82;;;;;;;12.37;46.61;97089.38;10417927;28;20072;-58
2021/12/26 10:39:42;;;;;;;13.52;8.65;;;;;;;12.59;46.62;97079.41;10412719;28;20052;-57
2021/12/26 10:44:45;;;;;;;14.63;8.32;;;;;;;12.69;46.37;97058.34;10416108;28;20851;-57
2021/12/26 10:49:54;;;;;;;57.70;32.25;;;;;;;12.85;46.32;97074.53;10415384;28;20218;-58
2021/12/26 10:54:57;;;;;;;17.63;9.90;;;;;;;12.94;46.82;97076.94;10410654;28;20067;-57
2021/12/26 11:00:14;;;;;;;18.33;9.15;;;;;;;12.98;46.33;97082.94;10418143;28;20067;-57
2021/12/26 11:05:19;;;;;;;19.50;10.50;;;;;;;13.21;46.96;97068.53;10414715;28;20174;-57
2021/12/26 11:10:31;;;;;;;18.95;10.32;;;;;;;13.39;46.34;97052.50;10417568;28;20728;-58
2021/12/26 11:15:39;;;;;;;13.75;9.20;;;;;;;13.36;44.36;97060.38;10408469;28;20071;-58
2021/12/26 11:20:40;;;;;;;18.90;9.98;;;;;;;13.53;44.55;97065.19;10411025;28;20060;-58
2021/12/26 11:25:52;;;;;;;6.55;3.45;;;;;;;13.65;43.57;97058.88;10416496;28;20055;-58
2021/12/26 11:30:53;;;;;;;14.57;9.05;;;;;;;13.89;43.38;97071.31;10405555;28;20071;-57
2021/12/26 11:35:54;;;;;;;21.83;9.10;;;;;;;14.04;43.15;97071.81;10409465;28;20072;-58
2021/12/26 11:41:06;;;;;;;17.65;10.52;;;;;;;14.30;43.37;97064.13;10413107;28;20055;-58
2021/12/26 11:46:15;;;;;;;9.40;4.95;;;;;;;14.36;42.87;97052.69;10410708;28;20064;-59
2021/12/26 11:51:20;;;;;;;9.10;4.77;;;;;;;14.32;43.09;97057.13;10411531;28;20060;-58
2021/12/26 11:56:34;;;;;;;7.60;3.95;;;;;;;14.35;42.60;97066.63;10410873;28;20314;-58
2021/12/26 12:01:35;;;;;;;8.63;5.00;;;;;;;14.39;42.64;97052.59;10408905;28;20491;-58
2021/12/26 12:06:34;;;;;;;8.10;4.82;;;;;;;14.67;42.63;97063.13;10402663;28;20064;-58
2021/12/26 12:11:57;;;;;;;8.27;4.32;;;;;;;14.81;42.04;97047.09;10414806;28;20024;-58
2021/12/26 12:17:14;;;;;;;9.18;4.65;;;;;;;14.85;41.44;97040.00;10373468;28;20068;-58
2021/12/26 12:22:13;;;;;;;6.10;3.83;;;;;;;15.04;41.73;97054.25;10412651;28;20064;-58
2021/12/26 12:27:13;;;;;;;10.43;5.60;;;;;;;15.04;40.71;97051.66;10416407;28;20048;-58
2021/12/26 12:32:18;;;;;;;8.25;3.67;;;;;;;15.20;41.15;97052.88;10397631;28;20128;-58
2021/12/26 12:37:31;;;;;;;8.48;3.65;;;;;;;15.10;41.01;97050.59;10388431;28;20064;-57
2021/12/26 12:42:31;;;;;;;8.82;5.28;;;;;;;15.03;41.43;97034.25;10384606;28;20063;-58
2021/12/26 12:47:30;;;;;;;8.98;4.85;;;;;;;14.98;41.22;97051.81;10397004;28;20063;-58
2021/12/26 12:52:38;;;;;;;11.13;4.53;;;;;;;14.92;41.89;97067.66;10408634;28;20025;-58
2021/12/26 12:57:41;;;;;;;12.23;7.15;;;;;;;14.74;41.36;97075.16;10393087;28;20059;-58
2021/12/26 13:02:40;;;;;;;11.20;5.18;;;;;;;14.71;42.29;97062.19;10399772;28;20127;-58
2021/12/26 13:07:39;;;;;;;9.90;4.95;;;;;;;14.41;42.45;97062.09;10398966;28;20067;-58
2021/12/26 13:12:39;;;;;;;11.52;5.53;;;;;;;14.01;42.97;97030.13;10410362;28;20021;-58
2021/12/26 13:17:42;;;;;;;10.05;4.97;;;;;;;14.10;43.35;97062.06;10410684;28;20487;-57
2021/12/26 13:22:53;;;;;;;10.65;6.35;;;;;;;14.03;43.52;97065.75;10409978;28;20068;-58
2021/12/26 13:27:53;;;;;;;14.18;7.10;;;;;;;13.98;43.36;97060.66;10407985;28;20072;-58
2021/12/26 13:32:52;;;;;;;17.90;6.32;;;;;;;13.98;43.75;97071.06;10420671;28;20069;-58
2021/12/26 13:37:55;;;;;;;8.57;5.78;;;;;;;13.89;43.88;97068.69;10410701;28;20052;-58
2021/12/26 13:42:54;;;;;;;9.50;5.25;;;;;;;13.86;43.73;97067.91;10410559;28;20106;-58
2021/12/26 13:47:53;;;;;;;16.63;8.95;;;;;;;13.77;43.81;97076.81;10399886;28;20469;-58
2021/12/26 13:53:07;;;;;;;18.42;9.18;;;;;;;13.62;43.77;97080.66;10408201;28;20139;-58
2021/12/26 13:58:13;;;;;;;17.23;9.52;;;;;;;13.72;43.86;97095.16;10405950;28;20119;-58
2021/12/26 14:03:12;;;;;;;23.30;13.70;;;;;;;13.74;44.50;97097.75;10406877;28;20124;-58
2021/12/26 14:08:16;;;;;;;18.17;12.50;;;;;;;13.64;44.48;97093.66;10411877;28;20142;-59
2021/12/26 14:13:20;;;;;;;21.27;15.02;;;;;;;13.50;44.46;97092.19;10410282;28;20663;-58
2021/12/26 14:18:24;;;;;;;43.85;30.77;;;;;;;13.39;44.88;97104.63;10409885;28;20120;-58
2021/12/26 14:23:42;;;;;;;24.38;16.67;;;;;;;13.00;46.30;97102.00;10410187;28;20115;-58
2021/12/26 14:28:50;;;;;;;24.20;16.75;;;;;;;12.88;46.46;97105.72;10410760;28;20128;-58
2021/12/26 14:33:49;;;;;;;28.15;18.48;;;;;;;12.77;46.54;97104.22;10402114;28;20123;-58
2021/12/26 14:38:57;;;;;;;29.27;19.42;;;;;;;12.63;46.78;97107.09;10411477;28;20086;-58
2021/12/26 14:43:56;;;;;;;19.73;12.32;;;;;;;12.46;47.16;97115.22;10405049;28;20123;-58
2021/12/26 14:49:07;;;;;;;16.60;11.10;;;;;;;12.30;47.45;97122.47;10410883;28;20036;-57
2021/12/26 14:54:09;;;;;;;27.88;21.30;;;;;;;12.16;47.81;97122.69;10406624;28;20119;-57
2021/12/26 14:59:22;;;;;;;32.25;18.98;;;;;;;12.07;48.58;97120.22;10404524;28;20135;-58
2021/12/26 15:04:21;;;;;;;11.50;7.57;;;;;;;11.89;48.81;97119.63;10394816;28;20119;-58
2021/12/26 15:09:47;;;;;;;12.73;8.35;;;;;;;11.75;48.75;97115.56;10411445;28;20111;-58
2021/12/26 15:14:47;;;;;;;8.85;6.10;;;;;;;11.68;49.06;97120.84;10407733;28;20134;-58
2021/12/26 15:19:48;;;;;;;13.50;6.85;;;;;;;11.66;49.75;97132.16;10410688;28;20107;-58
2021/12/26 15:24:53;;;;;;;17.30;10.52;;;;;;;11.53;49.60;97126.28;10410257;28;20151;-58
2021/12/26 15:29:52;;;;;;;17.30;11.88;;;;;;;11.62;49.62;97133.09;10408925;28;20163;-58
2021/12/26 15:34:51;;;;;;;37.28;26.73;;;;;;;11.62;49.67;97136.53;10407838;28;20086;-58
2021/12/26 15:40:02;;;;;;;44.70;27.30;;;;;;;11.61;50.26;97134.81;10409286;28;20028;-58
2021/12/26 15:45:02;;;;;;;32.35;20.10;;;;;;;11.57;50.64;97145.28;10408748;28;20171;-58
2021/12/26 15:50:05;;;;;;;29.45;22.02;;;;;;;11.42;50.85;97121.25;10407651;28;20797;-58
2021/12/26 15:55:04;;;;;;;23.73;15.63;;;;;;;11.54;49.96;97142.72;10385355;28;20148;-58
2021/12/26 16:00:05;;;;;;;31.10;20.65;;;;;;;11.61;50.67;97149.56;10407701;28;20470;-58
2021/12/26 16:05:04;;;;;;;31.20;20.65;;;;;;;11.46;50.44;97146.31;10406707;28;20139;-58
2021/12/26 16:10:05;;;;;;;;;;;;;;;11.38;51.22;97153.31;10405917;28;20120;-58
2021/12/26 16:15:05;;;;;;;45.50;29.85;;;;;;;11.20;51.76;97164.84;10406863;28;20022;-58
2021/12/26 16:20:09;;;;;;;26.42;18.58;;;;;;;10.98;52.42;97164.25;10377994;28;20587;-58
2021/12/26 16:25:11;;;;;;;49.28;31.20;;;;;;;10.91;52.58;97167.78;10407912;28;20127;-58
2021/12/26 16:30:12;;;;;;;35.05;24.30;;;;;;;10.92;52.16;97164.34;10406191;28;20147;-58
2021/12/26 16:35:13;;;;;;;28.15;18.10;;;;;;;10.78;53.31;97148.03;10404518;28;20135;-58
2021/12/26 16:40:13;;;;;;;35.22;23.00;;;;;;;10.55;54.37;97159.50;10400807;28;20107;-58
2021/12/26 16:45:12;;;;;;;21.38;14.77;;;;;;;10.52;53.88;97162.16;10404463;28;20111;-58
2021/12/26 16:50:15;;;;;;;25.83;16.75;;;;;;;10.70;54.25;97155.88;10402615;28;20143;-58
2021/12/26 16:55:14;;;;;;;25.00;17.65;;;;;;;10.79;54.87;97168.75;10406883;28;20139;-58
2021/12/26 17:00:13;;;;;;;26.30;18.55;;;;;;;10.90;53.76;97145.31;10403844;28;20138;-58
2021/12/26 17:05:14;;;;;;;13.80;9.55;;;;;;;11.15;53.47;97155.38;10404932;28;20559;-58
2021/12/26 17:10:13;;;;;;;64.53;42.13;;;;;;;11.25;52.81;97151.81;10405452;28;20123;-58
2021/12/26 17:15:13;;;;;;;9.00;5.93;;;;;;;11.30;52.89;97150.00;10407537;28;20124;-58
2021/12/26 17:20:12;;;;;;;6.97;4.28;;;;;;;11.29;51.96;97137.91;10402933;28;20120;-58
2021/12/26 17:25:11;;;;;;;;;;;;;;;11.45;51.96;97161.91;10407482;28;20139;-58
2021/12/26 17:30:14;;;;;;;8.50;4.20;;;;;;;11.05;51.71;97097.53;10408515;28;20007;-58
2021/12/26 17:35:13;;;;;;;8.77;4.55;;;;;;;11.33;51.10;97154.28;10403217;28;20127;-58
2021/12/26 17:40:12;;;;;;;7.25;4.15;;;;;;;11.28;51.04;97156.09;10400465;28;20202;-58
2021/12/26 17:45:12;;;;;;;8.98;4.80;;;;;;;11.20;50.55;97161.41;10401705;28;20131;-58
2021/12/26 17:50:12;;;;;;;10.80;5.85;;;;;;;11.22;50.79;97172.59;10401014;28;20124;-57
2021/12/26 17:55:14;;;;;;;9.13;5.53;;;;;;;11.15;51.10;97178.75;10416202;28;20071;-57
2021/12/26 18:00:17;;;;;;;9.82;5.43;;;;;;;11.16;50.76;97183.09;10415798;28;20152;-57
2021/12/26 18:05:17;;;;;;;8.82;5.03;;;;;;;11.18;50.79;97181.31;10413002;28;20063;-58
2021/12/26 18:10:17;;;;;;;12.68;5.60;;;;;;;11.23;51.22;97189.91;10413221;28;20147;-57
2021/12/26 18:15:18;;;;;;;12.73;5.15;;;;;;;11.21;50.95;97182.13;10417113;28;20144;-57
2021/12/26 18:20:23;;;;;;;9.30;5.22;;;;;;;11.19;51.19;97193.41;10414970;28;20119;-57
2021/12/26 18:25:23;;;;;;;9.00;5.47;;;;;;;11.12;51.46;97184.84;10418623;28;20064;-57
2021/12/26 18:30:22;;;;;;;9.80;6.00;;;;;;;11.08;51.17;97200.47;10416341;28;20521;-57
2021/12/26 18:35:22;;;;;;;14.82;6.15;;;;;;;10.92;51.27;97169.53;10413669;28;20060;-58
2021/12/26 18:40:26;;;;;;;10.15;5.50;;;;;;;10.96;51.43;97180.72;10410298;28;20068;-57
2021/12/26 18:45:25;;;;;;;11.40;6.88;;;;;;;10.87;51.25;97180.78;10414134;28;20133;-58
2021/12/26 18:50:25;;;;;;;10.27;5.13;;;;;;;10.88;51.36;97180.81;10412422;28;20112;-58
2021/12/26 18:55:23;;;;;;;;;;;;;;;10.82;51.36;97179.13;10416143;28;20071;-59
2021/12/26 19:00:25;;;;;;;9.15;4.65;;;;;;;10.61;51.83;97168.94;10414042;28;19913;-58
2021/12/26 19:05:28;;;;;;;8.68;4.47;;;;;;;10.65;51.91;97170.66;10410129;28;20103;-58
2021/12/26 19:10:27;;;;;;;9.13;4.63;;;;;;;10.68;52.11;97167.16;10412051;28;20111;-58
2021/12/26 19:15:27;;;;;;;8.02;3.80;;;;;;;10.67;51.89;97166.31;10415265;28;20565;-58
2021/12/26 19:20:26;;;;;;;12.07;4.85;;;;;;;10.61;51.44;97167.25;10411077;28;20235;-58
2021/12/26 19:25:25;;;;;;;7.50;3.90;;;;;;;10.61;51.92;97163.75;10413821;28;20107;-58
2021/12/26 19:30:26;;;;;;;7.00;4.32;;;;;;;10.50;51.68;97148.31;10411916;28;20127;-58
2021/12/26 19:35:27;;;;;;;8.38;4.38;;;;;;;10.60;51.78;97170.69;10408081;28;20127;-59
2021/12/26 19:40:27;;;;;;;7.63;4.07;;;;;;;10.61;51.76;97172.44;10409185;28;20093;-58
2021/12/26 19:45:26;;;;;;;6.88;3.90;;;;;;;10.59;51.21;97181.09;10412519;28;20536;-58
2021/12/26 19:50:25;;;;;;;7.38;4.38;;;;;;;10.27;51.33;97121.78;10409767;28;20816;-58
2021/12/26 19:55:24;;;;;;;8.65;3.97;;;;;;;10.48;51.32;97160.44;10407394;28;20051;-58
2021/12/26 20:00:23;;;;;;;6.03;3.67;;;;;;;10.50;51.25;97161.28;10398196;28;20029;-58
2021/12/26 20:05:22;;;;;;;6.07;3.28;;;;;;;10.56;51.17;97161.22;10395595;28;20068;-58
2021/12/26 20:10:22;;;;;;;11.70;3.70;;;;;;;10.45;51.64;97137.16;10383574;28;20109;-58
2021/12/26 20:15:21;;;;;;;;;;;;;;;10.68;51.09;97161.97;10414948;28;20098;-58
2021/12/26 20:20:23;;;;;;;7.45;4.00;;;;;;;10.72;51.51;97158.47;10372894;28;19959;-58
2021/12/26 20:25:25;;;;;;;10.10;3.72;;;;;;;10.67;50.86;97147.28;10405672;28;20086;-58
2021/12/26 20:30:24;;;;;;;9.23;3.38;;;;;;;10.76;51.02;97158.41;10411774;28;20080;-58
2021/12/26 20:35:23;;;;;;;6.45;3.05;;;;;;;10.82;50.52;97162.66;10411760;28;20837;-58
2021/12/26 20:40:22;;;;;;;4.75;3.08;;;;;;;10.91;50.68;97152.22;10412671;28;20063;-58
2021/12/26 20:45:21;;;;;;;6.90;3.58;;;;;;;11.01;49.92;97160.75;10412880;28;20442;-58
2021/12/26 20:50:20;;;;;;;5.10;2.83;;;;;;;11.11;49.91;97151.97;10407458;28;20716;-58
2021/12/26 20:55:19;;;;;;;;;;;;;;;11.20;49.81;97148.41;10401427;28;20052;-58
2021/12/26 21:00:23;;;;;;;4.88;3.10;;;;;;;11.20;50.03;97148.41;10398156;28;19916;-58
2021/12/26 21:05:22;;;;;;;7.30;3.38;;;;;;;11.20;49.55;97164.84;10405344;28;20056;-58
2021/12/26 21:10:21;;;;;;;;;;;;;;;11.00;50.80;97183.25;10404141;28;20131;-58
2021/12/26 21:15:20;;;;;;;12.45;8.13;;;;;;;10.45;51.90;97208.88;10416274;28;19931;-58
2021/12/26 21:20:19;;;;;;;9.48;6.90;;;;;;;9.92;53.49;97214.50;10412942;28;20029;-58
2021/12/26 21:25:19;;;;;;;;;;;;;;;9.60;54.81;97217.31;10414119;28;20056;-58
2021/12/26 21:30:18;;;;;;;17.13;10.13;;;;;;;9.03;57.16;97212.38;10414768;28;20026;-58
2021/12/26 21:35:17;;;;;;;22.30;11.65;;;;;;;8.41;58.91;97197.88;10415904;28;20047;-58
2021/12/26 21:40:17;;;;;;;18.30;9.73;;;;;;;7.92;62.36;97216.84;10398849;28;20064;-58
2021/12/26 21:45:16;;;;;;;19.30;10.77;;;;;;;7.68;63.28;97209.06;10388710;28;20824;-58
2021/12/26 21:50:19;;;;;;;14.45;9.98;;;;;;;7.58;64.40;97214.19;10395138;28;20064;-58
2021/12/26 21:55:24;;;;;;;18.85;10.15;;;;;;;7.54;63.56;97202.13;10399041;28;20068;-58
2021/12/26 22:00:27;;;;;;;14.38;9.20;;;;;;;7.64;63.55;97198.72;10398025;28;20064;-58
2021/12/26 22:05:27;;;;;;;39.72;26.45;;;;;;;7.66;63.06;97194.44;10416074;28;20076;-57
2021/12/26 22:10:26;;;;;;;22.48;13.30;;;;;;;7.59;63.57;97195.28;10405623;28;20065;-57
2021/12/26 22:15:25;;;;;;;;;;;;;;;7.37;65.16;97199.50;10411826;28;20075;-57
2021/12/26 22:20:24;;;;;;;21.67;14.60;;;;;;;7.32;66.08;97190.03;10394244;28;19912;-59
2021/12/26 22:25:23;;;;;;;28.38;18.08;;;;;;;7.12;66.71;97183.06;10390588;28;20083;-59
2021/12/26 22:30:24;;;;;;;;;;;;;;;7.02;66.75;97187.34;10413253;28;20075;-58
2021/12/26 22:35:24;;;;;;;35.00;22.98;;;;;;;6.95;67.21;97185.59;10413717;28;19966;-58
2021/12/26 22:40:23;;;;;;;;;;;;;;;6.85;67.98;97201.03;10403986;28;20048;-58
2021/12/26 22:45:21;;;;;;;31.70;21.70;;;;;;;6.75;67.82;97198.41;10408184;28;19919;-58
2021/12/26 22:50:21;;;;;;;27.63;17.23;;;;;;;6.48;69.23;97198.25;10416445;28;20043;-58
2021/12/26 22:55:20;;;;;;;29.13;18.48;;;;;;;6.04;69.39;97167.88;10404019;28;20127;-58
2021/12/26 23:00:42;;;;;;;24.63;15.15;;;;;;;5.88;70.96;97184.91;10414815;28;20451;-58
2021/12/26 23:05:41;;;;;;;27.10;16.90;;;;;;;5.75;71.77;97189.13;10396328;28;20127;-58
2021/12/26 23:10:40;;;;;;;29.55;17.50;;;;;;;5.74;71.40;97187.38;10414980;28;20185;-59
2021/12/26 23:15:40;;;;;;;24.23;15.90;;;;;;;5.78;71.02;97172.81;10397387;28;20527;-58
2021/12/26 23:20:39;;;;;;;26.35;16.27;;;;;;;5.83;70.45;97171.16;10391514;28;20487;-57